sensor_id;sensor_type;location;lat;lon;timestamp;P1;durP1;ratioP1;P2;durP2;ratioP2
2840;SDS011;53423;49.224;12.074;2022-07-29T00:01:17;5.60;;;1.65;;
2840;SDS011;53423;49.224;12.074;2022-07-29T00:03:46;6.63;;;2.10;;
2840;SDS011;53423;49.224;12.074;2022-07-29T00:06:15;4.80;;;1.98;;
2840;SDS011;53423;49.224;12.074;2022-07-29T00:08:43;5.78;;;2.10;;
2840;SDS011;53423;49.224;12.074;2022-07-29T00:11:11;5.13;;;1.65;;
2840;SDS011;53423;49.224;12.074;2022-07-29T00:13:39;6.13;;;1.90;;
2840;SDS011;53423;49.224;12.074;2022-07-29T00:16:12;5.87;;;2.10;;
2840;SDS011;53423;49.224;12.074;2022-07-29T00:18:41;6.03;;;1.95;;
2840;SDS011;53423;49.224;12.074;2022-07-29T00:21:10;6.15;;;1.75;;
2840;SDS011;53423;49.224;12.074;2022-07-29T00:23:38;5.70;;;2.13;;
2840;SDS011;53423;49.224;12.074;2022-07-29T00:26:06;7.40;;;2.13;;
2840;SDS011;53423;49.224;12.074;2022-07-29T00:28:34;5.17;;;1.60;;
2840;SDS011;53423;49.224;12.074;2022-07-29T00:31:02;5.82;;;1.95;;
2840;SDS011;53423;49.224;12.074;2022-07-29T00:33:30;4.65;;;1.90;;
2840;SDS011;53423;49.224;12.074;2022-07-29T00:35:58;4.85;;;1.73;;
2840;SDS011;53423;49.224;12.074;2022-07-29T00:38:27;6.18;;;1.90;;
2840;SDS011;53423;49.224;12.074;2022-07-29T00:40:55;5.50;;;1.80;;
2840;SDS011;53423;49.224;12.074;2022-07-29T00:43:23;5.38;;;2.00;;
2840;SDS011;53423;49.224;12.074;2022-07-29T00:45:51;4.30;;;1.45;;
2840;SDS011;53423;49.224;12.074;2022-07-29T00:48:19;5.78;;;1.73;;
2840;SDS011;53423;49.224;12.074;2022-07-29T00:50:47;5.95;;;1.90;;
2840;SDS011;53423;49.224;12.074;2022-07-29T00:53:17;4.40;;;1.77;;
2840;SDS011;53423;49.224;12.074;2022-07-29T00:55:48;6.80;;;2.00;;
2840;SDS011;53423;49.224;12.074;2022-07-29T00:58:17;5.03;;;2.30;;
2840;SDS011;53423;49.224;12.074;2022-07-29T01:00:45;7.13;;;2.10;;
2840;SDS011;53423;49.224;12.074;2022-07-29T01:03:13;5.60;;;1.83;;
2840;SDS011;53423;49.224;12.074;2022-07-29T01:05:42;4.87;;;1.77;;
2840;SDS011;53423;49.224;12.074;2022-07-29T01:08:17;5.60;;;2.00;;
2840;SDS011;53423;49.224;12.074;2022-07-29T01:10:46;6.03;;;2.00;;
2840;SDS011;53423;49.224;12.074;2022-07-29T01:13:16;4.28;;;1.75;;
2840;SDS011;53423;49.224;12.074;2022-07-29T01:15:46;5.05;;;1.73;;
2840;SDS011;53423;49.224;12.074;2022-07-29T01:18:20;4.50;;;1.63;;
2840;SDS011;53423;49.224;12.074;2022-07-29T01:21:03;5.45;;;1.80;;
2840;SDS011;53423;49.224;12.074;2022-07-29T01:23:52;5.28;;;1.80;;
2840;SDS011;53423;49.224;12.074;2022-07-29T01:26:46;4.70;;;1.60;;
2840;SDS011;53423;49.224;12.074;2022-07-29T01:29:18;6.50;;;1.70;;
2840;SDS011;53423;49.224;12.074;2022-07-29T01:32:02;5.63;;;2.30;;
2840;SDS011;53423;49.224;12.074;2022-07-29T01:34:53;5.18;;;2.10;;
2840;SDS011;53423;49.224;12.074;2022-07-29T01:37:26;5.07;;;1.95;;
2840;SDS011;53423;49.224;12.074;2022-07-29T01:39:58;5.72;;;2.15;;
2840;SDS011;53423;49.224;12.074;2022-07-29T01:42:29;5.65;;;1.95;;
2840;SDS011;53423;49.224;12.074;2022-07-29T01:45:05;5.90;;;2.00;;
2840;SDS011;53423;49.224;12.074;2022-07-29T01:47:37;4.80;;;1.95;;
2840;SDS011;53423;49.224;12.074;2022-07-29T01:50:10;6.30;;;2.00;;
2840;SDS011;53423;49.224;12.074;2022-07-29T01:52:42;5.50;;;2.08;;
2840;SDS011;53423;49.224;12.074;2022-07-29T01:55:16;6.18;;;2.20;;
2840;SDS011;53423;49.224;12.074;2022-07-29T01:57:47;7.63;;;2.20;;
2840;SDS011;53423;49.224;12.074;2022-07-29T02:00:17;5.40;;;2.10;;
2840;SDS011;53423;49.224;12.074;2022-07-29T02:02:46;7.53;;;2.20;;
2840;SDS011;53423;49.224;12.074;2022-07-29T02:05:17;8.13;;;2.55;;
2840;SDS011;53423;49.224;12.074;2022-07-29T02:07:47;6.85;;;2.03;;
2840;SDS011;53423;49.224;12.074;2022-07-29T02:10:17;5.10;;;2.20;;
2840;SDS011;53423;49.224;12.074;2022-07-29T02:12:51;7.25;;;2.60;;
2840;SDS011;53423;49.224;12.074;2022-07-29T02:15:22;7.07;;;2.13;;
2840;SDS011;53423;49.224;12.074;2022-07-29T02:17:53;6.25;;;2.22;;
2840;SDS011;53423;49.224;12.074;2022-07-29T02:20:25;5.80;;;2.30;;
2840;SDS011;53423;49.224;12.074;2022-07-29T02:22:55;5.40;;;2.10;;
2840;SDS011;53423;49.224;12.074;2022-07-29T02:25:25;6.13;;;2.30;;
2840;SDS011;53423;49.224;12.074;2022-07-29T02:28:03;5.10;;;2.08;;
2840;SDS011;53423;49.224;12.074;2022-07-29T02:30:35;5.53;;;2.30;;
2840;SDS011;53423;49.224;12.074;2022-07-29T02:33:06;5.68;;;2.40;;
2840;SDS011;53423;49.224;12.074;2022-07-29T02:35:37;6.37;;;2.90;;
2840;SDS011;53423;49.224;12.074;2022-07-29T02:38:07;8.23;;;2.40;;
2840;SDS011;53423;49.224;12.074;2022-07-29T02:40:54;5.00;;;2.30;;
2840;SDS011;53423;49.224;12.074;2022-07-29T02:43:24;6.15;;;2.65;;
2840;SDS011;53423;49.224;12.074;2022-07-29T02:45:54;6.85;;;2.17;;
2840;SDS011;53423;49.224;12.074;2022-07-29T02:48:26;6.07;;;2.60;;
2840;SDS011;53423;49.224;12.074;2022-07-29T02:51:01;5.30;;;2.20;;
2840;SDS011;53423;49.224;12.074;2022-07-29T02:53:34;6.75;;;2.28;;
2840;SDS011;53423;49.224;12.074;2022-07-29T02:56:04;5.60;;;2.35;;
2840;SDS011;53423;49.224;12.074;2022-07-29T02:58:37;6.45;;;2.15;;
2840;SDS011;53423;49.224;12.074;2022-07-29T03:01:10;5.67;;;2.13;;
2840;SDS011;53423;49.224;12.074;2022-07-29T03:03:47;5.80;;;2.35;;
2840;SDS011;53423;49.224;12.074;2022-07-29T03:06:18;6.57;;;2.28;;
2840;SDS011;53423;49.224;12.074;2022-07-29T03:09:03;5.22;;;2.35;;
2840;SDS011;53423;49.224;12.074;2022-07-29T03:11:38;5.22;;;2.00;;
2840;SDS011;53423;49.224;12.074;2022-07-29T03:14:16;5.47;;;2.23;;
2840;SDS011;53423;49.224;12.074;2022-07-29T03:16:48;6.07;;;2.38;;
2840;SDS011;53423;49.224;12.074;2022-07-29T03:19:18;6.43;;;2.08;;
2840;SDS011;53423;49.224;12.074;2022-07-29T03:21:47;8.57;;;2.15;;
2840;SDS011;53423;49.224;12.074;2022-07-29T03:24:25;5.47;;;2.25;;
2840;SDS011;53423;49.224;12.074;2022-07-29T03:26:55;5.50;;;2.20;;
2840;SDS011;53423;49.224;12.074;2022-07-29T03:29:24;4.97;;;2.20;;
2840;SDS011;53423;49.224;12.074;2022-07-29T03:32:01;5.78;;;2.03;;
2840;SDS011;53423;49.224;12.074;2022-07-29T03:34:34;6.47;;;2.60;;
2840;SDS011;53423;49.224;12.074;2022-07-29T03:37:03;5.82;;;2.50;;
2840;SDS011;53423;49.224;12.074;2022-07-29T03:39:33;6.60;;;2.67;;
2840;SDS011;53423;49.224;12.074;2022-07-29T03:42:03;5.85;;;2.30;;
2840;SDS011;53423;49.224;12.074;2022-07-29T03:44:33;6.53;;;2.90;;
2840;SDS011;53423;49.224;12.074;2022-07-29T03:47:04;6.93;;;2.70;;
2840;SDS011;53423;49.224;12.074;2022-07-29T03:49:34;6.22;;;2.28;;
2840;SDS011;53423;49.224;12.074;2022-07-29T03:52:04;5.60;;;2.20;;
2840;SDS011;53423;49.224;12.074;2022-07-29T03:54:33;5.78;;;2.33;;
2840;SDS011;53423;49.224;12.074;2022-07-29T03:57:01;6.13;;;2.13;;
2840;SDS011;53423;49.224;12.074;2022-07-29T03:59:31;5.50;;;2.28;;
2840;SDS011;53423;49.224;12.074;2022-07-29T04:02:01;7.07;;;2.38;;
2840;SDS011;53423;49.224;12.074;2022-07-29T04:04:33;5.83;;;2.50;;
2840;SDS011;53423;49.224;12.074;2022-07-29T04:07:02;6.53;;;2.70;;
2840;SDS011;53423;49.224;12.074;2022-07-29T04:09:31;6.38;;;2.70;;
2840;SDS011;53423;49.224;12.074;2022-07-29T04:11:59;5.72;;;2.47;;
2840;SDS011;53423;49.224;12.074;2022-07-29T04:14:30;5.53;;;2.22;;
2840;SDS011;53423;49.224;12.074;2022-07-29T04:16:58;7.83;;;2.30;;
2840;SDS011;53423;49.224;12.074;2022-07-29T04:19:26;5.68;;;2.58;;
2840;SDS011;53423;49.224;12.074;2022-07-29T04:21:56;5.78;;;2.30;;
2840;SDS011;53423;49.224;12.074;2022-07-29T04:24:24;8.43;;;2.67;;
2840;SDS011;53423;49.224;12.074;2022-07-29T04:26:52;5.82;;;1.98;;
2840;SDS011;53423;49.224;12.074;2022-07-29T04:29:21;5.30;;;1.93;;
2840;SDS011;53423;49.224;12.074;2022-07-29T04:31:49;4.95;;;2.25;;
2840;SDS011;53423;49.224;12.074;2022-07-29T04:34:17;7.22;;;2.28;;
2840;SDS011;53423;49.224;12.074;2022-07-29T04:36:46;5.72;;;2.40;;
2840;SDS011;53423;49.224;12.074;2022-07-29T04:39:15;5.72;;;2.50;;
2840;SDS011;53423;49.224;12.074;2022-07-29T04:41:48;5.57;;;2.30;;
2840;SDS011;53423;49.224;12.074;2022-07-29T04:44:20;6.15;;;2.08;;
2840;SDS011;53423;49.224;12.074;2022-07-29T04:46:54;5.10;;;2.10;;
2840;SDS011;53423;49.224;12.074;2022-07-29T04:49:23;6.47;;;2.60;;
2840;SDS011;53423;49.224;12.074;2022-07-29T04:51:51;5.60;;;2.40;;
2840;SDS011;53423;49.224;12.074;2022-07-29T04:54:20;5.50;;;2.50;;
2840;SDS011;53423;49.224;12.074;2022-07-29T04:56:49;5.82;;;2.60;;
2840;SDS011;53423;49.224;12.074;2022-07-29T04:59:17;5.57;;;2.40;;
2840;SDS011;53423;49.224;12.074;2022-07-29T05:01:45;5.85;;;2.50;;
2840;SDS011;53423;49.224;12.074;2022-07-29T05:04:14;6.95;;;2.42;;
2840;SDS011;53423;49.224;12.074;2022-07-29T05:06:42;7.27;;;2.63;;
2840;SDS011;53423;49.224;12.074;2022-07-29T05:09:10;7.35;;;2.55;;
2840;SDS011;53423;49.224;12.074;2022-07-29T05:11:40;6.93;;;2.60;;
2840;SDS011;53423;49.224;12.074;2022-07-29T05:14:08;6.80;;;3.10;;
2840;SDS011;53423;49.224;12.074;2022-07-29T05:16:36;6.75;;;2.75;;
2840;SDS011;53423;49.224;12.074;2022-07-29T05:19:05;6.03;;;2.60;;
2840;SDS011;53423;49.224;12.074;2022-07-29T05:21:39;7.65;;;2.92;;
2840;SDS011;53423;49.224;12.074;2022-07-29T05:24:07;7.00;;;2.88;;
2840;SDS011;53423;49.224;12.074;2022-07-29T05:26:35;7.43;;;2.80;;
2840;SDS011;53423;49.224;12.074;2022-07-29T05:29:05;9.77;;;3.92;;
2840;SDS011;53423;49.224;12.074;2022-07-29T05:31:53;5.87;;;2.50;;
2840;SDS011;53423;49.224;12.074;2022-07-29T05:34:21;6.38;;;3.17;;
2840;SDS011;53423;49.224;12.074;2022-07-29T05:36:51;6.95;;;3.08;;
2840;SDS011;53423;49.224;12.074;2022-07-29T05:39:19;8.50;;;3.42;;
2840;SDS011;53423;49.224;12.074;2022-07-29T05:42:08;6.82;;;2.72;;
2840;SDS011;53423;49.224;12.074;2022-07-29T05:44:37;8.17;;;2.83;;
2840;SDS011;53423;49.224;12.074;2022-07-29T05:47:06;6.43;;;2.80;;
2840;SDS011;53423;49.224;12.074;2022-07-29T05:49:34;7.40;;;2.83;;
2840;SDS011;53423;49.224;12.074;2022-07-29T05:52:02;6.78;;;3.22;;
2840;SDS011;53423;49.224;12.074;2022-07-29T05:54:30;6.88;;;2.70;;
2840;SDS011;53423;49.224;12.074;2022-07-29T05:56:58;6.90;;;3.27;;
2840;SDS011;53423;49.224;12.074;2022-07-29T05:59:26;5.70;;;2.80;;
2840;SDS011;53423;49.224;12.074;2022-07-29T06:01:57;7.55;;;2.95;;
2840;SDS011;53423;49.224;12.074;2022-07-29T06:04:25;7.78;;;2.92;;
2840;SDS011;53423;49.224;12.074;2022-07-29T06:06:53;7.90;;;3.25;;
2840;SDS011;53423;49.224;12.074;2022-07-29T06:09:21;6.30;;;3.17;;
2840;SDS011;53423;49.224;12.074;2022-07-29T06:11:50;6.28;;;3.08;;
2840;SDS011;53423;49.224;12.074;2022-07-29T06:14:18;7.07;;;3.10;;
2840;SDS011;53423;49.224;12.074;2022-07-29T06:16:46;7.13;;;3.03;;
2840;SDS011;53423;49.224;12.074;2022-07-29T06:19:16;6.28;;;3.10;;
2840;SDS011;53423;49.224;12.074;2022-07-29T06:21:45;8.57;;;3.70;;
2840;SDS011;53423;49.224;12.074;2022-07-29T06:24:14;8.27;;;3.17;;
2840;SDS011;53423;49.224;12.074;2022-07-29T06:26:43;9.95;;;3.38;;
2840;SDS011;53423;49.224;12.074;2022-07-29T06:29:11;5.85;;;2.80;;
2840;SDS011;53423;49.224;12.074;2022-07-29T06:31:40;6.13;;;2.97;;
2840;SDS011;53423;49.224;12.074;2022-07-29T06:34:08;6.20;;;3.13;;
2840;SDS011;53423;49.224;12.074;2022-07-29T06:36:37;10.10;;;3.30;;
2840;SDS011;53423;49.224;12.074;2022-07-29T06:39:06;8.00;;;3.60;;
2840;SDS011;53423;49.224;12.074;2022-07-29T06:41:38;7.40;;;3.20;;
2840;SDS011;53423;49.224;12.074;2022-07-29T06:44:06;9.50;;;3.42;;
2840;SDS011;53423;49.224;12.074;2022-07-29T06:46:35;7.17;;;3.40;;
2840;SDS011;53423;49.224;12.074;2022-07-29T06:49:03;9.93;;;3.15;;
2840;SDS011;53423;49.224;12.074;2022-07-29T06:51:31;7.22;;;3.20;;
2840;SDS011;53423;49.224;12.074;2022-07-29T06:54:01;8.05;;;3.50;;
2840;SDS011;53423;49.224;12.074;2022-07-29T06:56:32;6.68;;;3.67;;
2840;SDS011;53423;49.224;12.074;2022-07-29T06:59:05;7.03;;;3.37;;
2840;SDS011;53423;49.224;12.074;2022-07-29T07:01:34;9.40;;;3.90;;
2840;SDS011;53423;49.224;12.074;2022-07-29T07:04:04;8.80;;;3.47;;
2840;SDS011;53423;49.224;12.074;2022-07-29T07:06:32;7.75;;;2.97;;
2840;SDS011;53423;49.224;12.074;2022-07-29T07:09:02;7.82;;;3.20;;
2840;SDS011;53423;49.224;12.074;2022-07-29T07:11:30;6.63;;;3.00;;
2840;SDS011;53423;49.224;12.074;2022-07-29T07:13:59;7.82;;;2.60;;
2840;SDS011;53423;49.224;12.074;2022-07-29T07:16:29;7.43;;;2.70;;
2840;SDS011;53423;49.224;12.074;2022-07-29T07:18:58;6.57;;;2.70;;
2840;SDS011;53423;49.224;12.074;2022-07-29T07:21:26;7.43;;;2.83;;
2840;SDS011;53423;49.224;12.074;2022-07-29T07:23:56;8.03;;;2.80;;
2840;SDS011;53423;49.224;12.074;2022-07-29T07:26:26;6.30;;;2.80;;
2840;SDS011;53423;49.224;12.074;2022-07-29T07:28:54;8.07;;;2.90;;
2840;SDS011;53423;49.224;12.074;2022-07-29T07:31:22;6.72;;;2.70;;
2840;SDS011;53423;49.224;12.074;2022-07-29T07:33:51;8.32;;;3.03;;
2840;SDS011;53423;49.224;12.074;2022-07-29T07:36:19;5.83;;;2.83;;
2840;SDS011;53423;49.224;12.074;2022-07-29T07:38:47;8.40;;;3.13;;
2840;SDS011;53423;49.224;12.074;2022-07-29T07:41:15;5.55;;;2.53;;
2840;SDS011;53423;49.224;12.074;2022-07-29T07:43:45;6.18;;;2.65;;
2840;SDS011;53423;49.224;12.074;2022-07-29T07:46:13;9.57;;;2.85;;
2840;SDS011;53423;49.224;12.074;2022-07-29T07:48:41;5.87;;;2.80;;
2840;SDS011;53423;49.224;12.074;2022-07-29T07:51:10;6.78;;;2.90;;
2840;SDS011;53423;49.224;12.074;2022-07-29T07:53:38;7.78;;;2.90;;
2840;SDS011;53423;49.224;12.074;2022-07-29T07:56:07;6.75;;;2.75;;
2840;SDS011;53423;49.224;12.074;2022-07-29T07:58:38;6.28;;;2.97;;
2840;SDS011;53423;49.224;12.074;2022-07-29T08:01:07;6.90;;;2.87;;
2840;SDS011;53423;49.224;12.074;2022-07-29T08:03:36;9.05;;;2.60;;
2840;SDS011;53423;49.224;12.074;2022-07-29T08:06:05;7.80;;;2.78;;
2840;SDS011;53423;49.224;12.074;2022-07-29T08:08:33;7.22;;;2.70;;
2840;SDS011;53423;49.224;12.074;2022-07-29T08:11:01;8.10;;;3.00;;
2840;SDS011;53423;49.224;12.074;2022-07-29T08:13:34;6.00;;;2.97;;
2840;SDS011;53423;49.224;12.074;2022-07-29T08:16:04;7.57;;;2.78;;
2840;SDS011;53423;49.224;12.074;2022-07-29T08:18:41;7.53;;;3.35;;
2840;SDS011;53423;49.224;12.074;2022-07-29T08:21:10;6.28;;;2.80;;
2840;SDS011;53423;49.224;12.074;2022-07-29T08:23:40;9.85;;;3.05;;
2840;SDS011;53423;49.224;12.074;2022-07-29T08:26:24;5.70;;;2.50;;
2840;SDS011;53423;49.224;12.074;2022-07-29T08:28:52;8.00;;;2.38;;
2840;SDS011;53423;49.224;12.074;2022-07-29T08:31:20;7.50;;;2.63;;
2840;SDS011;53423;49.224;12.074;2022-07-29T08:33:49;7.72;;;2.90;;
2840;SDS011;53423;49.224;12.074;2022-07-29T08:36:17;6.10;;;2.83;;
2840;SDS011;53423;49.224;12.074;2022-07-29T08:38:47;6.67;;;2.83;;
2840;SDS011;53423;49.224;12.074;2022-07-29T08:41:15;8.15;;;3.60;;
2840;SDS011;53423;49.224;12.074;2022-07-29T08:43:45;7.30;;;3.20;;
2840;SDS011;53423;49.224;12.074;2022-07-29T08:46:13;7.30;;;3.30;;
2840;SDS011;53423;49.224;12.074;2022-07-29T08:48:42;6.72;;;3.70;;
2840;SDS011;53423;49.224;12.074;2022-07-29T08:51:13;7.80;;;3.50;;
2840;SDS011;53423;49.224;12.074;2022-07-29T08:53:43;8.50;;;3.35;;
2840;SDS011;53423;49.224;12.074;2022-07-29T08:56:13;7.60;;;3.58;;
2840;SDS011;53423;49.224;12.074;2022-07-29T08:58:43;7.25;;;3.42;;
2840;SDS011;53423;49.224;12.074;2022-07-29T09:01:17;6.97;;;3.50;;
2840;SDS011;53423;49.224;12.074;2022-07-29T09:04:10;8.97;;;3.73;;
2840;SDS011;53423;49.224;12.074;2022-07-29T09:06:42;6.75;;;3.63;;
2840;SDS011;53423;49.224;12.074;2022-07-29T09:09:12;6.80;;;3.70;;
2840;SDS011;53423;49.224;12.074;2022-07-29T09:11:41;6.35;;;3.50;;
2840;SDS011;53423;49.224;12.074;2022-07-29T09:14:10;9.10;;;3.60;;
2840;SDS011;53423;49.224;12.074;2022-07-29T09:16:47;8.23;;;4.13;;
2840;SDS011;53423;49.224;12.074;2022-07-29T09:19:19;7.68;;;3.95;;
2840;SDS011;53423;49.224;12.074;2022-07-29T09:21:53;10.70;;;3.97;;
2840;SDS011;53423;49.224;12.074;2022-07-29T09:24:25;6.40;;;3.70;;
2840;SDS011;53423;49.224;12.074;2022-07-29T09:26:54;7.18;;;3.53;;
2840;SDS011;53423;49.224;12.074;2022-07-29T09:29:23;7.80;;;4.00;;
2840;SDS011;53423;49.224;12.074;2022-07-29T09:31:52;7.15;;;3.92;;
2840;SDS011;53423;49.224;12.074;2022-07-29T09:34:22;7.25;;;3.53;;
2840;SDS011;53423;49.224;12.074;2022-07-29T09:36:51;6.65;;;3.55;;
2840;SDS011;53423;49.224;12.074;2022-07-29T09:39:29;6.47;;;3.50;;
2840;SDS011;53423;49.224;12.074;2022-07-29T09:41:58;7.17;;;3.97;;
2840;SDS011;53423;49.224;12.074;2022-07-29T09:44:42;8.20;;;3.75;;
2840;SDS011;53423;49.224;12.074;2022-07-29T09:47:12;8.85;;;3.75;;
2840;SDS011;53423;49.224;12.074;2022-07-29T09:49:53;8.82;;;3.78;;
2840;SDS011;53423;49.224;12.074;2022-07-29T09:52:25;7.22;;;3.40;;
2840;SDS011;53423;49.224;12.074;2022-07-29T09:55:03;7.63;;;3.70;;
2840;SDS011;53423;49.224;12.074;2022-07-29T09:57:32;8.10;;;3.60;;
2840;SDS011;53423;49.224;12.074;2022-07-29T10:00:03;8.57;;;3.30;;
2840;SDS011;53423;49.224;12.074;2022-07-29T10:02:33;6.82;;;3.40;;
2840;SDS011;53423;49.224;12.074;2022-07-29T10:05:03;7.82;;;3.55;;
2840;SDS011;53423;49.224;12.074;2022-07-29T10:07:44;7.87;;;3.57;;
2840;SDS011;53423;49.224;12.074;2022-07-29T10:10:19;7.75;;;3.78;;
2840;SDS011;53423;49.224;12.074;2022-07-29T10:12:50;7.15;;;3.33;;
2840;SDS011;53423;49.224;12.074;2022-07-29T10:15:21;5.93;;;3.33;;
2840;SDS011;53423;49.224;12.074;2022-07-29T10:17:50;6.43;;;3.35;;
2840;SDS011;53423;49.224;12.074;2022-07-29T10:20:19;7.47;;;3.50;;
2840;SDS011;53423;49.224;12.074;2022-07-29T10:22:50;8.25;;;3.17;;
2840;SDS011;53423;49.224;12.074;2022-07-29T10:25:20;6.13;;;3.08;;
2840;SDS011;53423;49.224;12.074;2022-07-29T10:27:48;6.22;;;3.35;;
2840;SDS011;53423;49.224;12.074;2022-07-29T10:30:19;7.25;;;3.17;;
2840;SDS011;53423;49.224;12.074;2022-07-29T10:32:51;6.90;;;3.47;;
2840;SDS011;53423;49.224;12.074;2022-07-29T10:41:36;5.55;;;3.00;;
2840;SDS011;53423;49.224;12.074;2022-07-29T10:44:18;7.60;;;3.75;;
2840;SDS011;53423;49.224;12.074;2022-07-29T10:46:49;7.13;;;3.47;;
2840;SDS011;53423;49.224;12.074;2022-07-29T10:49:18;7.22;;;3.60;;
2840;SDS011;53423;49.224;12.074;2022-07-29T10:51:51;6.72;;;3.42;;
2840;SDS011;53423;49.224;12.074;2022-07-29T10:57:18;8.30;;;3.75;;
2840;SDS011;53423;49.224;12.074;2022-07-29T11:00:28;5.97;;;3.40;;
2840;SDS011;53423;49.224;12.074;2022-07-29T11:02:58;7.05;;;3.53;;
2840;SDS011;53423;49.224;12.074;2022-07-29T11:05:51;7.35;;;3.95;;
2840;SDS011;53423;49.224;12.074;2022-07-29T11:08:21;6.40;;;3.40;;
2840;SDS011;53423;49.224;12.074;2022-07-29T11:14:01;6.77;;;3.17;;
2840;SDS011;53423;49.224;12.074;2022-07-29T11:19:25;6.07;;;3.55;;
2840;SDS011;53423;49.224;12.074;2022-07-29T11:21:56;6.63;;;3.22;;
2840;SDS011;53423;49.224;12.074;2022-07-29T11:24:25;6.13;;;3.83;;
2840;SDS011;53423;49.224;12.074;2022-07-29T11:27:10;6.37;;;3.40;;
2840;SDS011;53423;49.224;12.074;2022-07-29T11:29:54;7.30;;;3.45;;
2840;SDS011;53423;49.224;12.074;2022-07-29T11:32:35;6.97;;;3.30;;
2840;SDS011;53423;49.224;12.074;2022-07-29T11:35:11;5.95;;;3.53;;
2840;SDS011;53423;49.224;12.074;2022-07-29T11:37:43;7.13;;;3.63;;
2840;SDS011;53423;49.224;12.074;2022-07-29T11:40:23;6.40;;;3.40;;
2840;SDS011;53423;49.224;12.074;2022-07-29T11:42:51;5.75;;;3.33;;
2840;SDS011;53423;49.224;12.074;2022-07-29T11:45:22;8.48;;;3.72;;
2840;SDS011;53423;49.224;12.074;2022-07-29T11:48:14;6.63;;;3.45;;
2840;SDS011;53423;49.224;12.074;2022-07-29T11:50:55;7.15;;;3.80;;
2840;SDS011;53423;49.224;12.074;2022-07-29T11:53:24;6.57;;;3.60;;
2840;SDS011;53423;49.224;12.074;2022-07-29T11:55:57;7.65;;;3.83;;
2840;SDS011;53423;49.224;12.074;2022-07-29T11:58:28;8.85;;;3.50;;
2840;SDS011;53423;49.224;12.074;2022-07-29T12:00:59;7.90;;;3.70;;
2840;SDS011;53423;49.224;12.074;2022-07-29T12:03:48;6.95;;;3.28;;
2840;SDS011;53423;49.224;12.074;2022-07-29T12:06:32;5.63;;;3.10;;
2840;SDS011;53423;49.224;12.074;2022-07-29T12:09:00;6.22;;;3.30;;
2840;SDS011;53423;49.224;12.074;2022-07-29T12:11:40;6.15;;;3.08;;
2840;SDS011;53423;49.224;12.074;2022-07-29T12:14:24;5.45;;;3.00;;
2840;SDS011;53423;49.224;12.074;2022-07-29T12:16:54;5.90;;;3.20;;
2840;SDS011;53423;49.224;12.074;2022-07-29T12:19:23;5.73;;;2.80;;
2840;SDS011;53423;49.224;12.074;2022-07-29T12:21:53;5.40;;;2.92;;
2840;SDS011;53423;49.224;12.074;2022-07-29T12:24:26;5.47;;;3.05;;
2840;SDS011;53423;49.224;12.074;2022-07-29T12:27:10;5.63;;;3.00;;
2840;SDS011;53423;49.224;12.074;2022-07-29T12:29:40;5.45;;;2.90;;
2840;SDS011;53423;49.224;12.074;2022-07-29T12:32:15;6.17;;;2.87;;
2840;SDS011;53423;49.224;12.074;2022-07-29T12:34:45;5.68;;;2.65;;
2840;SDS011;53423;49.224;12.074;2022-07-29T12:37:13;6.05;;;2.53;;
2840;SDS011;53423;49.224;12.074;2022-07-29T12:39:41;5.63;;;2.08;;
2840;SDS011;53423;49.224;12.074;2022-07-29T12:42:11;5.95;;;2.17;;
2840;SDS011;53423;49.224;12.074;2022-07-29T12:44:44;4.70;;;1.80;;
2840;SDS011;53423;49.224;12.074;2022-07-29T12:47:15;3.90;;;1.63;;
2840;SDS011;53423;49.224;12.074;2022-07-29T12:49:45;5.85;;;2.03;;
2840;SDS011;53423;49.224;12.074;2022-07-29T12:52:23;4.10;;;1.90;;
2840;SDS011;53423;49.224;12.074;2022-07-29T12:54:56;4.78;;;1.90;;
2840;SDS011;53423;49.224;12.074;2022-07-29T12:57:25;5.03;;;1.90;;
2840;SDS011;53423;49.224;12.074;2022-07-29T13:00:04;6.53;;;1.70;;
2840;SDS011;53423;49.224;12.074;2022-07-29T13:02:37;6.30;;;2.10;;
2840;SDS011;53423;49.224;12.074;2022-07-29T13:05:07;4.60;;;2.15;;
2840;SDS011;53423;49.224;12.074;2022-07-29T13:07:36;5.18;;;2.05;;
2840;SDS011;53423;49.224;12.074;2022-07-29T13:10:22;5.27;;;2.07;;
2840;SDS011;53423;49.224;12.074;2022-07-29T13:13:00;4.30;;;1.88;;
2840;SDS011;53423;49.224;12.074;2022-07-29T13:15:30;5.15;;;2.33;;
2840;SDS011;53423;49.224;12.074;2022-07-29T13:18:00;7.05;;;2.63;;
2840;SDS011;53423;49.224;12.074;2022-07-29T13:20:28;5.03;;;2.38;;
2840;SDS011;53423;49.224;12.074;2022-07-29T13:22:57;5.20;;;2.30;;
2840;SDS011;53423;49.224;12.074;2022-07-29T13:25:26;4.75;;;2.22;;
2840;SDS011;53423;49.224;12.074;2022-07-29T13:27:56;5.72;;;2.70;;
2840;SDS011;53423;49.224;12.074;2022-07-29T13:30:24;5.10;;;2.50;;
2840;SDS011;53423;49.224;12.074;2022-07-29T13:32:53;5.68;;;2.20;;
2840;SDS011;53423;49.224;12.074;2022-07-29T13:35:23;5.53;;;2.23;;
2840;SDS011;53423;49.224;12.074;2022-07-29T13:37:51;6.53;;;2.08;;
2840;SDS011;53423;49.224;12.074;2022-07-29T13:40:19;6.38;;;2.78;;
2840;SDS011;53423;49.224;12.074;2022-07-29T13:42:47;5.70;;;2.25;;
2840;SDS011;53423;49.224;12.074;2022-07-29T13:45:15;4.57;;;1.95;;
2840;SDS011;53423;49.224;12.074;2022-07-29T13:47:43;6.23;;;2.40;;
2840;SDS011;53423;49.224;12.074;2022-07-29T13:50:14;5.03;;;2.10;;
2840;SDS011;53423;49.224;12.074;2022-07-29T13:52:44;5.43;;;2.22;;
2840;SDS011;53423;49.224;12.074;2022-07-29T13:55:14;5.75;;;2.25;;
2840;SDS011;53423;49.224;12.074;2022-07-29T13:57:42;4.80;;;2.22;;
2840;SDS011;53423;49.224;12.074;2022-07-29T14:00:10;6.03;;;2.00;;
2840;SDS011;53423;49.224;12.074;2022-07-29T14:02:39;4.53;;;2.13;;
2840;SDS011;53423;49.224;12.074;2022-07-29T14:05:08;4.90;;;2.40;;
2840;SDS011;53423;49.224;12.074;2022-07-29T14:07:37;4.80;;;2.50;;
2840;SDS011;53423;49.224;12.074;2022-07-29T14:10:07;5.55;;;2.40;;
2840;SDS011;53423;49.224;12.074;2022-07-29T14:12:36;6.00;;;2.30;;
2840;SDS011;53423;49.224;12.074;2022-07-29T14:15:05;6.10;;;2.30;;
2840;SDS011;53423;49.224;12.074;2022-07-29T14:17:33;5.13;;;2.30;;
2840;SDS011;53423;49.224;12.074;2022-07-29T14:20:01;5.32;;;2.25;;
2840;SDS011;53423;49.224;12.074;2022-07-29T14:22:30;7.68;;;2.80;;
2840;SDS011;53423;49.224;12.074;2022-07-29T14:25:04;7.97;;;2.40;;
2840;SDS011;53423;49.224;12.074;2022-07-29T14:27:40;5.07;;;2.50;;
2840;SDS011;53423;49.224;12.074;2022-07-29T14:30:09;4.95;;;2.50;;
2840;SDS011;53423;49.224;12.074;2022-07-29T14:32:37;5.72;;;2.65;;
2840;SDS011;53423;49.224;12.074;2022-07-29T14:35:06;4.70;;;2.20;;
2840;SDS011;53423;49.224;12.074;2022-07-29T14:37:35;4.37;;;1.90;;
2840;SDS011;53423;49.224;12.074;2022-07-29T14:40:08;5.03;;;2.22;;
2840;SDS011;53423;49.224;12.074;2022-07-29T14:42:37;5.03;;;2.03;;
2840;SDS011;53423;49.224;12.074;2022-07-29T14:45:06;5.57;;;2.28;;
2840;SDS011;53423;49.224;12.074;2022-07-29T14:47:35;5.78;;;1.70;;
2840;SDS011;53423;49.224;12.074;2022-07-29T14:50:04;4.90;;;2.07;;
2840;SDS011;53423;49.224;12.074;2022-07-29T14:52:33;5.78;;;2.10;;
2840;SDS011;53423;49.224;12.074;2022-07-29T14:55:01;5.85;;;2.20;;
2840;SDS011;53423;49.224;12.074;2022-07-29T14:57:42;5.32;;;2.08;;
2840;SDS011;53423;49.224;12.074;2022-07-29T15:00:11;4.75;;;2.10;;
2840;SDS011;53423;49.224;12.074;2022-07-29T15:02:39;4.40;;;1.90;;
2840;SDS011;53423;49.224;12.074;2022-07-29T15:05:27;5.88;;;1.80;;
2840;SDS011;53423;49.224;12.074;2022-07-29T15:07:55;4.93;;;2.00;;
2840;SDS011;53423;49.224;12.074;2022-07-29T15:10:24;4.47;;;1.70;;
2840;SDS011;53423;49.224;12.074;2022-07-29T15:12:53;4.28;;;1.60;;
2840;SDS011;53423;49.224;12.074;2022-07-29T15:15:22;3.90;;;1.37;;
2840;SDS011;53423;49.224;12.074;2022-07-29T15:17:50;3.90;;;1.40;;
2840;SDS011;53423;49.224;12.074;2022-07-29T15:20:18;4.00;;;1.40;;
2840;SDS011;53423;49.224;12.074;2022-07-29T15:22:47;4.28;;;1.35;;
2840;SDS011;53423;49.224;12.074;2022-07-29T15:25:15;4.20;;;1.65;;
2840;SDS011;53423;49.224;12.074;2022-07-29T15:27:44;4.03;;;1.37;;